Details From YLEC - Leigh Creek
To YBHI - Broken Hill
Flight Number -
Tags generated
Created
Modified
Stats Distance 186 nm / 345 km
Max Altitude 17,000 ft / 5,182 m
Waypoints 4
Social Downloads 0
Likes 0
Share VATSIM

Download

Looking for another format? Having issues loading an existing format? Contact us
Advertisement - Login to hide

Notes

Basic altitude profile: - Ascent Rate: 600ft/min - Ascent Speed: 120kts - Cruise Altitude: 3000ft - Cruise Speed: 160kts - Descent Rate: 800ft/min - Descent Speed: 140kts Options: - Use NATs: yes - Use PACOTS: yes - Use low airways: yes - Use high airways: yes

Route

YLEC LEC J141 SAPED YBHI

ID Type Via Altitude Latitude Longitude Leg Dist Tot Dist Heading (true) Name
O YLEC APT - 0 ft / 0 m -30.59935˚ 138.42747˚ - 0 nm - Leigh Creek
LEC VOR - 0 ft / 0 m -30.59639˚ 138.42889˚ 0 nm 0 nm 22° / 22° LEIGH CREEK VOR
SAPED FIX J141 (AWY-LO) 17,000 ft / 5,182 m -31.35194˚ 141.00722˚ 140 nm 140 nm 110° / 108° -
O YBHI APT - 0 ft / 0 m -32.00505˚ 141.47083˚ 45 nm 186 nm 149° / 149° Broken Hill

Altitude Profile

Advertisement - Login to hide

Weather


0- 5 10 15 20 25 30 35+ Temperature / ° C

Clouds and Precipitation
Forecast for 2017-12-12 18:00 UTC. Updated 34 minutes ago

Ground ~20,000 ft ~40,000 ft Winds

YLEC

Details ICAO YLEC
Name Leigh Creek
Region Australia
Timezone Australia/Adelaide (UTC+10.5)
Stats Elevation 856 ft / 261 m (AMSL)
Location -30.599346° 138.427473°
Runways 2
Magnetic Variation 7.028° E

METAR

YLEC 121500Z AUTO 11004KT //// // ////// 27/02 Q1009

Decode

TAF

Not found

Departure Runways

ID Width Length Bearing (true) Bearing (mag) Surface Threshold Offset Overrun Length
11 98 ft / 30 m 5,601 ft / 1,707 m 121.00° 113.97° Asphalt 0 ft / 0 m 0 ft / 0 m
2 85 ft / 26 m 4,025 ft / 1,227 m 29.90° 22.87° Asphalt 0 ft / 0 m 0 ft / 0 m
20 85 ft / 26 m 4,025 ft / 1,227 m 209.90° 202.87° Asphalt 0 ft / 0 m 0 ft / 0 m
29 98 ft / 30 m 5,601 ft / 1,707 m 301.00° 293.97° Asphalt 0 ft / 0 m 0 ft / 0 m

YBHI

Details ICAO YBHI (BHQ)
Name Broken Hill
Region Australia
Timezone Australia/Broken_Hill (UTC+10.5)
Stats Elevation 958 ft / 292 m (AMSL)
Location -32.005049° 141.470829°
Runways 2
Magnetic Variation 8.448° E

METAR

YBHI 121500Z AUTO 03008KT 9999 // NCD 27/02 Q1010

Decode

TAF

Not found

Destination Runways

ID Width Length Bearing (true) Bearing (mag) Surface Threshold Offset Overrun Length
05 98 ft / 30 m 8,247 ft / 2,514 m 55.76° 47.31° Asphalt 0 ft / 0 m 0 ft / 0 m
14 98 ft / 30 m 3,284 ft / 1,001 m 143.12° 134.67° Dirt 0 ft / 0 m 0 ft / 0 m
23 98 ft / 30 m 8,247 ft / 2,514 m 235.74° 227.29° Asphalt 0 ft / 0 m 0 ft / 0 m
32 98 ft / 30 m 3,284 ft / 1,001 m 323.12° 314.67° Dirt 0 ft / 0 m 0 ft / 0 m

Popular Alternatives